Portada
METAR-TAF:

METAR-TAF

Aeroports :

Pine Ridge, Dakota del Sud, Estats Units d'Amèrica

latitud: 43-01-32N, longitud: 102-31-23W, altitud: 1015 m

Observació

L'informe es va fer fa 20 minuts, a les 04:57 UTC
Vent 11 kt del Nord/Nord-Oest
Temperatura -3°C
Humitat 86%
Pressió 1015 hPa
Visibilitat: 4.8 km
Núvols disperses a una alçada de 900 ft
Núvols disperses a una alçada de 1500 ft
Cel cobert a una alçada de 3900 ft
neu, boirina

METAR: KIEN 250457Z AUTO 34011KT 3SM -SN BR SCT009 SCT015 OVC039 M03/M05 A2998 RMK AO2 P0000 T10281050

Hora: 22:17 (05:17 UTC)


TAF: manca

Observacions i pronòstics meteorològics de més de 4000 aeroports (METAR i TAF).

Les estacions disponibles són els punts grocs i vermells al mapa.

Posi el ratolí al punt desitjat per veure el nom de l'estació.

Feu clic per veure les observacions i els pronòstics meteorològics.

Per canviar el mapa: feu clic els botons verds amb una creu de color negre per apropar; al botó verd amb un guió per allunyar la imatge; o en les fletxes verdes per a mapes adjacents.


METAR-TAF: